createdAt,value
2022-11-08T00:01:53.637Z,0.93
2022-11-08T00:04:28.158Z,1.00
2022-11-08T00:07:18.449Z,1.08
2022-11-08T00:10:08.580Z,1.20
2022-11-08T00:12:58.727Z,0.95
2022-11-08T00:15:34.707Z,1.27
2022-11-08T00:18:08.184Z,0.90
2022-11-08T00:20:42.488Z,1.40
2022-11-08T00:23:15.302Z,1.13
2022-11-08T00:25:54.698Z,1.17
2022-11-08T00:28:27.495Z,1.23
2022-11-08T00:31:00.283Z,1.30
2022-11-08T00:33:33.431Z,1.00
2022-11-08T00:36:08.101Z,1.08
2022-11-08T00:38:43.952Z,1.15
2022-11-08T00:41:16.757Z,1.20
2022-11-08T00:43:49.734Z,1.40
2022-11-08T00:46:22.675Z,1.20
2022-11-08T00:48:55.530Z,1.42
2022-11-08T00:51:29.768Z,1.27
2022-11-08T00:54:02.789Z,1.20
2022-11-08T00:56:35.936Z,1.02
2022-11-08T00:59:09.334Z,0.75
2022-11-08T01:01:43.022Z,0.90
2022-11-08T01:04:17.912Z,1.05
2022-11-08T01:06:52.140Z,0.90
2022-11-08T01:09:25.049Z,0.80
2022-11-08T01:11:57.880Z,0.98
2022-11-08T01:14:30.806Z,0.93
2022-11-08T01:17:03.662Z,0.90
2022-11-08T01:19:36.580Z,0.88
2022-11-08T01:22:10.915Z,0.80
2022-11-08T01:24:43.885Z,0.88
2022-11-08T01:27:17.202Z,0.77
2022-11-08T01:29:50.190Z,0.80
2022-11-08T01:32:23.055Z,1.00
2022-11-08T01:34:56.087Z,0.98
2022-11-08T01:37:30.570Z,0.93
2022-11-08T01:40:03.732Z,0.93
2022-11-08T01:42:36.652Z,1.17
2022-11-08T01:45:11.769Z,0.85
2022-11-08T01:47:44.804Z,0.70
2022-11-08T01:50:19.948Z,0.90
2022-11-08T01:52:56.643Z,0.88
2022-11-08T01:55:36.584Z,0.77
2022-11-08T01:58:14.544Z,0.80
2022-11-08T02:00:47.719Z,0.82
2022-11-08T02:03:22.157Z,0.90
2022-11-08T02:05:55.200Z,0.75
2022-11-08T02:08:33.694Z,0.90
2022-11-08T02:11:08.770Z,0.80
2022-11-08T02:13:42.265Z,0.93
2022-11-08T02:16:17.199Z,0.88
2022-11-08T02:18:50.574Z,0.75
2022-11-08T02:21:29.500Z,0.68
2022-11-08T02:24:07.940Z,0.80
2022-11-08T02:26:41.524Z,0.88
2022-11-08T02:29:28.602Z,0.90
2022-11-08T02:32:03.366Z,0.70
2022-11-08T02:34:39.182Z,0.90
2022-11-08T02:37:15.084Z,0.80
2022-11-08T02:39:49.311Z,0.90
2022-11-08T02:42:22.411Z,0.80
2022-11-08T02:44:55.198Z,0.85
2022-11-08T02:47:28.665Z,0.60
2022-11-08T02:50:01.456Z,1.15
2022-11-08T02:52:34.289Z,0.80
2022-11-08T02:55:09.972Z,0.80
2022-11-08T02:57:42.846Z,0.80
2022-11-08T03:00:16.744Z,0.70
2022-11-08T03:02:53.762Z,0.70
2022-11-08T03:05:28.450Z,0.90
2022-11-08T03:08:01.492Z,0.70
2022-11-08T03:10:35.743Z,0.80
2022-11-08T03:13:08.915Z,0.75
2022-11-08T03:15:41.724Z,0.57
2022-11-08T03:18:16.753Z,0.70
2022-11-08T03:20:49.795Z,0.80
2022-11-08T03:23:22.702Z,0.70
2022-11-08T03:25:57.025Z,0.68
2022-11-08T03:28:30.086Z,0.77
2022-11-08T03:31:03.068Z,0.68
2022-11-08T03:33:36.064Z,0.70
2022-11-08T03:36:09.499Z,0.82
2022-11-08T03:38:42.457Z,0.90
2022-11-08T03:41:16.676Z,0.80
2022-11-08T03:43:49.551Z,0.85
2022-11-08T03:46:22.329Z,0.70
2022-11-08T03:48:55.253Z,0.70
2022-11-08T03:51:28.049Z,0.70
2022-11-08T03:54:00.937Z,0.90
2022-11-08T03:56:35.265Z,0.80
2022-11-08T03:59:08.369Z,0.80
2022-11-08T04:01:41.341Z,0.90
2022-11-08T04:04:14.285Z,0.80
2022-11-08T04:06:47.061Z,0.63
2022-11-08T04:09:21.657Z,0.68
2022-11-08T04:12:14.022Z,0.75
2022-11-08T04:15:05.059Z,0.70
2022-11-08T04:17:54.699Z,0.60
2022-11-08T04:20:45.227Z,0.60
2022-11-08T04:23:18.891Z,0.70
2022-11-08T04:25:56.049Z,0.60
2022-11-08T04:28:31.905Z,0.82
2022-11-08T04:31:07.500Z,0.70
2022-11-08T04:33:40.594Z,0.73
2022-11-08T04:36:15.931Z,0.82
2022-11-08T04:38:50.245Z,0.90
2022-11-08T04:41:25.003Z,0.80
2022-11-08T04:43:59.702Z,0.90
2022-11-08T04:46:32.743Z,0.65
2022-11-08T04:49:05.558Z,0.60
2022-11-08T04:51:38.478Z,0.70
2022-11-08T04:54:11.821Z,0.90
2022-11-08T04:56:44.894Z,0.70
2022-11-08T04:59:19.455Z,0.90
2022-11-08T05:01:52.447Z,0.80
2022-11-08T05:04:25.331Z,0.90
2022-11-08T05:06:58.272Z,0.70
2022-11-08T05:09:31.083Z,1.00
2022-11-08T05:12:04.088Z,0.70
2022-11-08T05:14:39.007Z,0.90
2022-11-08T05:17:11.942Z,0.88
2022-11-08T05:20:04.342Z,0.90
2022-11-08T05:22:54.741Z,0.70
2022-11-08T05:25:27.522Z,0.80
2022-11-08T05:28:00.521Z,0.90
2022-11-08T05:30:34.832Z,0.90
2022-11-08T05:33:07.716Z,0.73
2022-11-08T05:35:40.754Z,0.90
2022-11-08T05:38:13.874Z,1.00
2022-11-08T05:40:47.438Z,0.93
2022-11-08T05:43:20.585Z,1.00
2022-11-08T05:45:55.012Z,1.00
2022-11-08T05:48:27.984Z,1.00
2022-11-08T05:51:01.013Z,0.93
2022-11-08T05:53:33.825Z,1.08
2022-11-08T05:56:07.170Z,0.90
2022-11-08T05:58:40.125Z,0.90
2022-11-08T06:01:19.826Z,0.82
2022-11-08T06:03:52.893Z,1.00
2022-11-08T06:06:25.888Z,0.70
2022-11-08T06:08:58.761Z,1.05
2022-11-08T06:11:31.608Z,1.05
2022-11-08T06:14:04.576Z,1.35
2022-11-08T06:16:38.759Z,0.95
2022-11-08T06:19:11.732Z,1.08
2022-11-08T06:21:44.706Z,1.42
2022-11-08T06:24:18.533Z,1.30
2022-11-08T06:26:51.376Z,1.17
2022-11-08T06:29:24.404Z,1.10
2022-11-08T06:31:59.109Z,1.23
2022-11-08T06:34:31.963Z,1.40
2022-11-08T06:37:05.074Z,1.15
2022-11-08T06:39:38.194Z,0.95
2022-11-08T06:42:11.005Z,1.15
2022-11-08T06:44:43.850Z,0.80
2022-11-08T06:47:18.237Z,1.10
2022-11-08T06:49:51.228Z,0.50
2022-11-08T06:52:24.105Z,0.82
2022-11-08T06:54:57.035Z,0.80
2022-11-08T06:57:29.919Z,0.90
2022-11-08T07:00:03.229Z,0.80
2022-11-08T07:02:37.892Z,0.90
2022-11-08T07:05:11.303Z,0.90
2022-11-08T07:07:44.111Z,0.80
2022-11-08T07:10:17.001Z,0.98
2022-11-08T07:12:51.475Z,1.10
2022-11-08T07:15:24.611Z,1.08
2022-11-08T07:18:03.201Z,1.23
2022-11-08T07:20:36.419Z,1.10
2022-11-08T07:23:11.954Z,1.20
2022-11-08T07:25:44.858Z,0.90
2022-11-08T07:28:21.072Z,1.25
2022-11-08T07:30:59.925Z,1.10
2022-11-08T07:33:34.401Z,1.10
2022-11-08T07:36:07.708Z,1.40
2022-11-08T07:38:40.483Z,1.40
2022-11-08T07:41:13.340Z,1.50
2022-11-08T07:43:46.144Z,1.35
2022-11-08T07:46:18.965Z,1.40
2022-11-08T07:48:53.199Z,1.33
2022-11-08T07:51:26.095Z,1.20
2022-11-08T07:54:02.768Z,1.20
2022-11-08T07:56:44.641Z,1.60
2022-11-08T07:59:17.551Z,1.63
2022-11-08T08:01:50.521Z,1.88
2022-11-08T08:04:24.837Z,1.95
2022-11-08T08:06:58.860Z,1.80
2022-11-08T08:09:31.854Z,1.95
2022-11-08T08:12:05.160Z,1.90
2022-11-08T08:14:38.216Z,2.03
2022-11-08T08:17:10.998Z,1.90
2022-11-08T08:19:45.167Z,2.42
2022-11-08T08:22:18.017Z,2.00
2022-11-08T08:24:50.891Z,1.95
2022-11-08T08:27:23.799Z,1.80
2022-11-08T08:29:56.595Z,2.13
2022-11-08T08:32:31.629Z,2.15
2022-11-08T08:35:06.964Z,2.30
2022-11-08T08:37:40.220Z,1.80
2022-11-08T08:40:13.610Z,1.45
2022-11-08T08:42:46.572Z,1.75
2022-11-08T08:45:19.387Z,1.50
2022-11-08T08:47:53.788Z,1.33
2022-11-08T08:50:30.812Z,1.75
2022-11-08T08:53:06.126Z,1.10
2022-11-08T08:55:40.440Z,1.17
2022-11-08T08:58:13.328Z,1.08
2022-11-08T09:03:39.460Z,1.00
2022-11-08T09:06:15.670Z,1.05
2022-11-08T09:08:48.525Z,1.00
2022-11-08T09:11:21.383Z,1.27
2022-11-08T09:13:54.589Z,0.95
2022-11-08T09:16:27.439Z,0.98
2022-11-08T09:19:00.286Z,0.80
2022-11-08T09:21:34.724Z,1.00
2022-11-08T09:24:08.147Z,0.88
2022-11-08T09:26:40.984Z,2.28
2022-11-08T09:29:13.999Z,1.50
2022-11-08T09:31:46.820Z,1.35
2022-11-08T09:34:21.683Z,1.00
2022-11-08T09:36:57.084Z,0.70
2022-11-08T09:39:29.994Z,0.73
2022-11-08T09:42:41.500Z,0.63
2022-11-08T09:45:23.873Z,0.70
2022-11-08T09:48:04.793Z,0.68
2022-11-08T09:50:42.622Z,0.65
2022-11-08T09:53:20.801Z,0.88
2022-11-08T09:55:57.965Z,1.00
2022-11-08T09:58:35.422Z,1.00
2022-11-08T10:01:12.227Z,1.10
2022-11-08T10:03:49.040Z,1.08
2022-11-08T10:06:49.434Z,1.20
2022-11-08T10:09:41.114Z,1.10
2022-11-08T10:12:22.495Z,0.80
2022-11-08T10:15:09.095Z,0.98
2022-11-08T10:18:07.089Z,0.77
2022-11-08T10:20:51.880Z,0.63
2022-11-08T10:23:31.501Z,0.65
2022-11-08T10:26:12.320Z,0.82
2022-11-08T10:28:50.478Z,0.77
2022-11-08T10:31:23.523Z,0.47
2022-11-08T10:33:58.707Z,0.75
2022-11-08T10:36:36.519Z,0.55
2022-11-08T10:39:16.145Z,0.80
2022-11-08T10:41:59.852Z,0.60
2022-11-08T10:44:33.151Z,0.60
2022-11-08T10:47:12.285Z,0.60
2022-11-08T10:49:45.679Z,0.55
2022-11-08T10:52:21.519Z,0.82
2022-11-08T10:54:56.180Z,0.45
2022-11-08T10:57:40.418Z,0.75
2022-11-08T11:00:27.744Z,0.50
2022-11-08T11:03:02.195Z,0.50
2022-11-08T11:05:36.614Z,0.80
2022-11-08T11:08:19.015Z,0.63
2022-11-08T11:10:52.615Z,0.45
2022-11-08T11:16:06.566Z,0.60
2022-11-08T11:18:48.259Z,0.50
2022-11-08T11:21:25.270Z,0.65
2022-11-08T11:24:09.321Z,0.73
2022-11-08T11:26:46.729Z,0.77
2022-11-08T11:29:25.287Z,0.70
2022-11-08T11:31:58.735Z,0.60
2022-11-08T11:34:52.035Z,0.77
2022-11-08T11:37:40.890Z,0.50
2022-11-08T11:40:25.720Z,0.70
2022-11-08T11:43:06.354Z,0.73
2022-11-08T11:45:46.737Z,0.70
2022-11-08T11:48:27.888Z,0.63
2022-11-08T11:51:00.710Z,0.50
2022-11-08T11:53:38.764Z,0.60
2022-11-08T11:56:41.282Z,0.80
2022-11-08T11:59:34.389Z,0.60
2022-11-08T12:02:42.744Z,0.43
2022-11-08T12:06:00.344Z,0.50
2022-11-08T12:08:46.515Z,0.52
2022-11-08T12:11:38.461Z,0.80
2022-11-08T12:14:29.109Z,0.60
2022-11-08T12:17:19.624Z,0.57
2022-11-08T12:20:03.975Z,0.50
2022-11-08T12:22:51.914Z,0.55
2022-11-08T12:25:32.695Z,0.50
2022-11-08T12:28:20.023Z,0.50
2022-11-08T12:31:04.935Z,0.60
2022-11-08T12:33:48.235Z,0.60
2022-11-08T12:36:31.463Z,0.60
2022-11-08T12:39:22.180Z,0.95
2022-11-08T12:42:08.412Z,0.40
2022-11-08T12:45:01.921Z,0.50
2022-11-08T12:47:41.544Z,0.55
2022-11-08T12:50:22.682Z,0.70
2022-11-08T12:53:25.061Z,0.60
2022-11-08T12:55:59.564Z,0.50
2022-11-08T12:58:35.580Z,0.52
2022-11-08T13:01:15.404Z,0.57
2022-11-08T13:04:33.065Z,0.52
2022-11-08T13:07:13.050Z,0.90
2022-11-08T13:09:54.307Z,0.60
2022-11-08T13:12:36.724Z,0.50
2022-11-08T13:15:19.134Z,0.57
2022-11-08T13:18:34.511Z,0.40
2022-11-08T13:21:31.655Z,0.50
2022-11-08T13:24:44.004Z,0.40
2022-11-08T13:27:40.867Z,0.60
2022-11-08T13:30:38.893Z,0.80
2022-11-08T13:33:23.254Z,0.52
2022-11-08T13:36:10.065Z,0.70
2022-11-08T13:38:53.862Z,0.43
2022-11-08T13:41:27.482Z,0.80
2022-11-08T13:44:01.965Z,0.63
2022-11-08T13:46:49.377Z,0.70
2022-11-08T13:49:24.201Z,0.80
2022-11-08T13:52:30.147Z,0.60
2022-11-08T13:55:03.093Z,0.70
2022-11-08T13:57:59.129Z,0.68
2022-11-08T14:00:46.730Z,0.50
2022-11-08T14:03:54.857Z,0.50
2022-11-08T14:06:35.631Z,0.60
2022-11-08T14:09:19.195Z,0.65
2022-11-08T14:12:01.741Z,0.68
2022-11-08T14:14:43.516Z,0.80
2022-11-08T14:20:28.450Z,0.73
2022-11-08T14:23:15.828Z,0.90
2022-11-08T14:25:52.017Z,0.52
2022-11-08T14:28:27.750Z,0.90
2022-11-08T14:31:02.707Z,0.75
2022-11-08T14:33:43.147Z,0.60
2022-11-08T14:36:17.505Z,0.70
2022-11-08T14:38:52.865Z,0.73
2022-11-08T14:41:29.157Z,0.90
2022-11-08T14:44:03.827Z,0.75
2022-11-08T14:46:39.086Z,0.60
2022-11-08T14:49:22.493Z,0.70
2022-11-08T14:52:13.725Z,0.70
2022-11-08T14:54:48.446Z,0.88
2022-11-08T14:57:43.358Z,0.75
2022-11-08T15:00:19.055Z,0.80
2022-11-08T15:02:55.296Z,0.70
2022-11-08T15:05:35.155Z,0.80
2022-11-08T15:08:21.248Z,0.70
2022-11-08T15:10:56.946Z,0.90
2022-11-08T15:13:33.553Z,0.98
2022-11-08T15:16:08.055Z,1.88
2022-11-08T15:18:43.284Z,1.80
2022-11-08T15:21:29.196Z,1.45
2022-11-08T15:24:14.444Z,1.05
2022-11-08T15:27:17.050Z,1.10
2022-11-08T15:29:52.429Z,1.15
2022-11-08T15:32:25.431Z,1.00
2022-11-08T15:34:58.788Z,1.05
2022-11-08T15:37:38.043Z,1.23
2022-11-08T15:40:20.042Z,1.30
2022-11-08T15:42:53.246Z,1.08
2022-11-08T15:45:29.094Z,1.10
2022-11-08T15:48:22.767Z,1.10
2022-11-08T15:50:57.851Z,0.65
2022-11-08T15:53:32.825Z,1.00
2022-11-08T15:56:06.927Z,0.90
2022-11-08T15:58:40.246Z,1.58
2022-11-08T16:01:18.935Z,1.35
2022-11-08T16:03:52.635Z,1.88
2022-11-08T16:06:25.638Z,1.40
2022-11-08T16:09:01.388Z,1.00
2022-11-08T16:11:34.897Z,1.10
2022-11-08T16:14:10.994Z,1.02
2022-11-08T16:16:43.864Z,0.77
2022-11-08T16:19:21.339Z,1.23
2022-11-08T16:21:54.341Z,1.10
2022-11-08T16:24:28.565Z,0.93
2022-11-08T16:27:02.648Z,0.90
2022-11-08T16:29:36.012Z,1.02
2022-11-08T16:32:11.069Z,0.90
2022-11-08T16:34:43.934Z,1.52
2022-11-08T16:37:16.859Z,1.05
2022-11-08T16:39:51.097Z,1.10
2022-11-08T16:42:24.175Z,1.17
2022-11-08T16:44:57.295Z,1.00
2022-11-08T16:47:30.836Z,1.13
2022-11-08T16:50:04.456Z,2.25
2022-11-08T16:52:37.354Z,2.75
2022-11-08T16:55:17.784Z,2.63
2022-11-08T16:57:50.900Z,3.00
2022-11-08T17:00:24.919Z,2.28
2022-11-08T17:02:57.847Z,2.00
2022-11-08T17:05:30.735Z,2.78
2022-11-08T17:08:03.646Z,4.70
2022-11-08T17:10:38.176Z,4.03
2022-11-08T17:13:14.028Z,3.10
2022-11-08T17:15:47.574Z,2.78
2022-11-08T17:18:22.101Z,2.13
2022-11-08T17:20:55.840Z,1.50
2022-11-08T17:23:28.725Z,1.25
2022-11-08T17:26:06.472Z,1.50
2022-11-08T17:28:39.932Z,1.42
2022-11-08T17:31:14.288Z,1.73
2022-11-08T17:33:47.594Z,1.70
2022-11-08T17:36:20.431Z,1.20
2022-11-08T17:38:53.352Z,1.27
2022-11-08T17:41:28.039Z,1.45
2022-11-08T17:44:00.951Z,1.40
2022-11-08T17:46:33.851Z,1.27
2022-11-08T17:49:06.787Z,1.60
2022-11-08T17:51:39.642Z,1.70
2022-11-08T17:54:12.610Z,1.48
2022-11-08T17:56:47.042Z,1.13
2022-11-08T17:59:20.197Z,1.48
2022-11-08T18:01:53.083Z,1.42
2022-11-08T18:04:25.994Z,1.40
2022-11-08T18:06:58.840Z,1.35
2022-11-08T18:09:31.948Z,1.50
2022-11-08T18:12:08.013Z,1.60
2022-11-08T18:14:40.943Z,1.40
2022-11-08T18:17:13.963Z,1.33
2022-11-08T18:19:49.940Z,1.50
2022-11-08T18:22:23.017Z,1.60
2022-11-08T18:24:55.881Z,1.48
2022-11-08T18:27:30.533Z,1.30
2022-11-08T18:30:03.349Z,1.15
2022-11-08T18:32:37.324Z,1.60
2022-11-08T18:35:27.418Z,1.48
2022-11-08T18:38:00.311Z,1.48
2022-11-08T18:40:33.276Z,1.77
2022-11-08T18:43:07.807Z,1.55
2022-11-08T18:45:40.687Z,1.35
2022-11-08T18:48:13.532Z,1.60
2022-11-08T18:50:50.632Z,1.75
2022-11-08T18:53:23.390Z,1.80
2022-11-08T18:55:56.268Z,1.80
2022-11-08T18:58:33.183Z,1.85
2022-11-08T19:01:07.236Z,1.63
2022-11-08T19:03:40.121Z,1.80
2022-11-08T19:06:13.155Z,1.83
2022-11-08T19:08:46.101Z,1.90
2022-11-08T19:11:22.798Z,1.55
2022-11-08T19:13:57.353Z,1.63
2022-11-08T19:16:30.533Z,1.70
2022-11-08T19:19:03.329Z,1.55
2022-11-08T19:21:36.809Z,1.40
2022-11-08T19:24:20.596Z,1.50
2022-11-08T19:26:53.706Z,1.60
2022-11-08T19:29:28.295Z,1.60
2022-11-08T19:32:01.247Z,1.80
2022-11-08T19:34:34.100Z,1.73
2022-11-08T19:37:07.182Z,1.98
2022-11-08T19:39:44.377Z,1.92
2022-11-08T19:42:17.432Z,2.28
2022-11-08T19:44:51.956Z,2.40
2022-11-08T19:47:24.817Z,2.28
2022-11-08T19:49:57.573Z,1.63
2022-11-08T19:52:30.389Z,1.55
2022-11-08T19:55:03.218Z,1.83
2022-11-08T19:57:36.126Z,1.70
2022-11-08T20:00:12.229Z,1.75
2022-11-08T20:02:45.141Z,1.77
2022-11-08T20:05:20.796Z,1.83
2022-11-08T20:07:53.991Z,1.70
2022-11-08T20:10:26.911Z,2.20
2022-11-08T20:13:03.127Z,2.67
2022-11-08T20:15:37.351Z,2.78
2022-11-08T20:18:10.856Z,2.78
2022-11-08T20:20:44.766Z,2.67
2022-11-08T20:23:18.680Z,2.53
2022-11-08T20:25:51.557Z,2.50
2022-11-08T20:28:24.589Z,3.13
2022-11-08T20:31:04.615Z,2.70
2022-11-08T20:33:39.562Z,2.60
2022-11-08T20:36:14.096Z,2.75
2022-11-08T20:38:47.306Z,3.10
2022-11-08T20:41:20.163Z,3.58
2022-11-08T20:43:53.009Z,3.08
2022-11-08T20:46:27.799Z,3.42
2022-11-08T20:49:01.320Z,3.47
2022-11-08T20:51:35.379Z,3.35
2022-11-08T20:54:11.706Z,3.30
2022-11-08T20:56:49.858Z,2.72
2022-11-08T20:59:28.086Z,3.10
2022-11-08T21:02:05.932Z,3.47
2022-11-08T21:04:47.905Z,3.35
2022-11-08T21:13:56.379Z,3.15
2022-11-08T21:16:31.862Z,3.40
2022-11-08T21:19:12.823Z,4.07
2022-11-08T21:21:47.747Z,3.63
2022-11-08T21:24:44.666Z,2.90
2022-11-08T21:27:18.157Z,2.10
2022-11-08T21:29:53.185Z,2.05
2022-11-08T21:32:26.119Z,1.98
2022-11-08T21:35:00.440Z,2.08
2022-11-08T21:37:33.304Z,2.20
2022-11-08T21:40:07.970Z,2.30
2022-11-08T21:42:46.091Z,2.38
2022-11-08T21:45:21.314Z,2.00
2022-11-08T21:47:55.082Z,2.08
2022-11-08T21:50:29.436Z,1.98
2022-11-08T21:53:02.920Z,2.30
2022-11-08T21:55:36.053Z,2.70
2022-11-08T21:58:09.856Z,2.25
2022-11-08T22:00:42.726Z,2.30
2022-11-08T22:03:15.731Z,2.30
2022-11-08T22:05:49.956Z,2.20
2022-11-08T22:08:22.751Z,1.75
2022-11-08T22:10:55.554Z,2.05
2022-11-08T22:13:28.396Z,1.63
2022-11-08T22:16:01.410Z,1.20
2022-11-08T22:21:43.316Z,1.92
2022-11-08T22:24:18.360Z,1.80
2022-11-08T22:26:52.827Z,1.75
2022-11-08T22:29:25.725Z,1.58
2022-11-08T22:31:58.602Z,1.08
2022-11-08T22:34:31.408Z,1.40
2022-11-08T22:37:05.557Z,1.45
2022-11-08T22:39:38.461Z,1.40
2022-11-08T22:42:11.310Z,1.30
2022-11-08T22:44:44.376Z,1.23
2022-11-08T22:47:17.255Z,1.92
2022-11-08T22:49:50.185Z,1.10
2022-11-08T22:52:24.518Z,1.50
2022-11-08T22:54:58.036Z,1.50
2022-11-08T22:57:30.982Z,1.00
2022-11-08T23:00:04.170Z,1.40
2022-11-08T23:02:37.199Z,1.30
2022-11-08T23:05:10.722Z,1.45
2022-11-08T23:07:45.050Z,1.00
2022-11-08T23:10:18.051Z,1.10
2022-11-08T23:13:08.421Z,0.80
2022-11-08T23:15:59.126Z,0.82
2022-11-08T23:18:31.916Z,1.20
2022-11-08T23:21:22.905Z,0.93
2022-11-08T23:24:15.045Z,0.93
2022-11-08T23:27:05.966Z,1.40
2022-11-08T23:29:56.727Z,1.10
2022-11-08T23:32:29.579Z,0.85
2022-11-08T23:35:02.774Z,1.10
2022-11-08T23:37:35.576Z,1.08
2022-11-08T23:40:30.834Z,0.85
2022-11-08T23:43:22.835Z,1.10
2022-11-08T23:48:28.733Z,0.90
2022-11-08T23:51:01.722Z,1.10
2022-11-08T23:53:36.886Z,1.10
2022-11-08T23:56:11.445Z,1.00
2022-11-08T23:58:44.231Z,1.10
